createdAt,value
2022-08-28T00:00:03.862Z,28.23
2022-08-28T00:03:10.909Z,27.98
2022-08-28T00:05:50.542Z,31.35
2022-08-28T00:08:37.070Z,27.55
2022-08-28T00:11:31.272Z,29.58
2022-08-28T00:17:23.875Z,27.02
2022-08-28T00:22:47.292Z,26.02
2022-08-28T00:25:59.866Z,26.27
2022-08-28T00:28:58.311Z,26.85
2022-08-28T00:32:01.368Z,31.05
2022-08-28T00:34:58.537Z,27.10
2022-08-28T00:38:15.004Z,26.42
2022-08-28T00:40:59.322Z,29.65
2022-08-28T00:50:13.054Z,27.30
2022-08-28T00:55:51.567Z,28.40
2022-08-28T00:58:46.551Z,24.92
2022-08-28T01:04:27.666Z,30.38
2022-08-28T01:10:52.041Z,26.88
2022-08-28T01:14:03.159Z,28.65
2022-08-28T01:20:38.322Z,30.27
2022-08-28T01:23:50.926Z,29.00
2022-08-28T01:26:23.381Z,30.20
2022-08-28T01:28:57.855Z,29.57
2022-08-28T01:31:36.031Z,28.77
2022-08-28T01:34:08.691Z,30.67
2022-08-28T01:40:11.875Z,29.02
2022-08-28T01:43:11.898Z,32.45
2022-08-28T01:55:24.826Z,28.05
2022-08-28T01:58:29.053Z,33.17
2022-08-28T02:01:52.646Z,29.70
2022-08-28T02:08:21.588Z,29.35
2022-08-28T02:11:27.993Z,30.17
2022-08-28T02:17:22.004Z,31.92
2022-08-28T02:20:21.929Z,34.20
2022-08-28T02:23:34.485Z,30.80
2022-08-28T02:26:27.839Z,33.10
2022-08-28T02:29:21.384Z,31.02
2022-08-28T02:32:10.698Z,31.95
2022-08-28T02:37:40.970Z,35.42
2022-08-28T02:40:23.621Z,30.58
2022-08-28T02:43:04.956Z,33.15
2022-08-28T02:46:13.483Z,31.45
2022-08-28T02:48:50.768Z,30.05
2022-08-28T02:51:47.921Z,27.63
2022-08-28T02:54:42.086Z,27.85
2022-08-28T03:03:06.242Z,29.95
2022-08-28T03:05:40.463Z,29.95
2022-08-28T03:14:45.693Z,26.52
2022-08-28T03:20:48.577Z,29.98
2022-08-28T03:23:35.112Z,26.75
2022-08-28T03:26:38.463Z,25.50
2022-08-28T03:35:51.327Z,28.65
2022-08-28T03:39:00.865Z,26.42
2022-08-28T03:41:39.376Z,27.73
2022-08-28T03:44:23.856Z,24.52
2022-08-28T03:46:56.328Z,25.48
2022-08-28T03:53:10.682Z,23.65
2022-08-28T03:56:11.398Z,27.73
2022-08-28T03:59:08.490Z,29.38
2022-08-28T04:02:13.818Z,25.13
2022-08-28T04:05:12.942Z,25.47
2022-08-28T04:13:45.414Z,27.73
2022-08-28T04:17:01.510Z,21.60
2022-08-28T04:26:29.639Z,24.20
2022-08-28T04:28:59.433Z,21.98
2022-08-28T04:31:47.661Z,22.35
2022-08-28T04:34:24.460Z,22.10
2022-08-28T04:36:55.238Z,21.77
2022-08-28T04:39:35.647Z,24.52
2022-08-28T04:43:21.963Z,22.30
2022-08-28T04:49:39.666Z,21.02
2022-08-28T04:52:21.114Z,22.65
2022-08-28T04:57:50.312Z,22.00
2022-08-28T05:00:54.159Z,24.02
2022-08-28T05:04:09.015Z,23.98
2022-08-28T05:13:51.105Z,20.95
2022-08-28T05:16:37.638Z,22.42
2022-08-28T05:22:14.031Z,24.80
2022-08-28T05:24:57.223Z,22.05
2022-08-28T05:27:45.623Z,23.25
2022-08-28T05:30:14.508Z,20.52
2022-08-28T05:32:47.553Z,22.48
2022-08-28T05:35:55.117Z,20.75
2022-08-28T05:38:41.817Z,21.52
2022-08-28T05:41:38.859Z,28.63
2022-08-28T05:44:44.059Z,25.25
2022-08-28T05:47:41.766Z,24.60
2022-08-28T05:53:56.519Z,26.88
2022-08-28T06:12:26.044Z,23.98
2022-08-28T06:14:53.288Z,24.55
2022-08-28T06:17:25.012Z,23.52
2022-08-28T06:19:53.026Z,27.40
2022-08-28T06:22:20.733Z,25.80
2022-08-28T06:24:50.463Z,30.25
2022-08-28T06:27:20.634Z,22.80
2022-08-28T06:29:48.062Z,25.25
2022-08-28T06:32:16.822Z,23.75
2022-08-28T06:34:44.176Z,26.08
2022-08-28T06:37:12.444Z,24.40
2022-08-28T06:39:39.747Z,23.80
2022-08-28T06:42:07.577Z,23.67
2022-08-28T06:44:39.161Z,27.50
2022-08-28T06:47:09.154Z,24.10
2022-08-28T06:49:38.141Z,23.63
2022-08-28T06:52:05.353Z,23.00
2022-08-28T06:54:34.769Z,20.10
2022-08-28T06:57:04.790Z,21.15
2022-08-28T06:59:31.972Z,23.48
2022-08-28T07:01:59.338Z,23.95
2022-08-28T07:04:28.256Z,21.02
2022-08-28T07:06:56.313Z,24.77
2022-08-28T07:09:24.798Z,22.17
2022-08-28T07:11:52.637Z,22.10
2022-08-28T07:14:23.617Z,24.27
2022-08-28T07:16:54.714Z,22.17
2022-08-28T07:22:27.508Z,25.33
2022-08-28T07:25:03.122Z,22.10
2022-08-28T07:27:31.604Z,23.75
2022-08-28T07:29:58.742Z,19.52
2022-08-28T07:32:40.274Z,19.27
2022-08-28T07:35:08.587Z,16.70
2022-08-28T07:37:40.931Z,15.13
2022-08-28T07:40:11.431Z,15.50
2022-08-28T07:42:59.128Z,16.15
2022-08-28T07:45:29.078Z,13.75
2022-08-28T07:48:48.162Z,15.23
2022-08-28T07:51:15.348Z,11.13
2022-08-28T07:53:42.654Z,8.80
2022-08-28T07:56:10.968Z,9.35
2022-08-28T07:58:38.935Z,8.00
2022-08-28T08:01:19.732Z,8.57
2022-08-28T08:03:47.433Z,7.85
2022-08-28T08:06:28.148Z,8.70
2022-08-28T08:09:01.472Z,8.65
2022-08-28T08:11:39.099Z,8.00
2022-08-28T08:14:06.429Z,9.63
2022-08-28T08:16:47.103Z,6.00
2022-08-28T08:19:15.587Z,6.07
2022-08-28T08:21:44.777Z,5.65
2022-08-28T08:24:19.811Z,7.55
2022-08-28T08:26:59.713Z,4.80
2022-08-28T08:29:35.953Z,4.93
2022-08-28T08:32:08.021Z,6.85
2022-08-28T08:34:39.165Z,5.43
2022-08-28T08:37:10.617Z,6.63
2022-08-28T08:39:41.805Z,4.95
2022-08-28T08:42:33.333Z,5.05
2022-08-28T08:45:07.628Z,6.13
2022-08-28T08:47:52.474Z,4.45
2022-08-28T08:50:42.765Z,7.45
2022-08-28T08:54:09.489Z,5.22
2022-08-28T08:57:12.178Z,6.10
2022-08-28T08:59:48.120Z,4.53
2022-08-28T09:02:34.898Z,4.40
2022-08-28T09:05:13.743Z,5.22
2022-08-28T09:07:55.473Z,4.32
2022-08-28T09:10:36.049Z,5.47
2022-08-28T09:13:37.138Z,3.92
2022-08-28T09:16:26.284Z,3.70
2022-08-28T09:19:02.562Z,3.75
2022-08-28T09:21:37.114Z,3.58
2022-08-28T09:24:21.888Z,4.15
2022-08-28T09:27:39.360Z,3.25
2022-08-28T09:30:43.178Z,5.43
2022-08-28T09:43:13.601Z,3.05
2022-08-28T09:49:18.133Z,2.88
2022-08-28T09:52:04.544Z,3.78
2022-08-28T09:55:03.020Z,2.67
2022-08-28T10:00:54.747Z,3.85
2022-08-28T10:03:46.179Z,3.90
2022-08-28T10:06:45.814Z,3.33
2022-08-28T10:10:10.051Z,3.80
2022-08-28T10:13:07.064Z,6.40
2022-08-28T10:16:21.218Z,3.75
2022-08-28T10:19:16.213Z,3.60
2022-08-28T10:22:36.217Z,3.78
2022-08-28T10:25:51.138Z,4.65
2022-08-28T10:29:01.251Z,4.00
2022-08-28T10:31:59.549Z,3.53
2022-08-28T10:34:32.820Z,3.75
2022-08-28T10:37:41.657Z,3.80
2022-08-28T10:40:18.314Z,3.70
2022-08-28T10:42:55.964Z,3.72
2022-08-28T10:45:26.353Z,5.43
2022-08-28T10:48:00.493Z,4.00
2022-08-28T10:50:37.566Z,4.32
2022-08-28T10:53:10.590Z,3.72
2022-08-28T10:56:02.961Z,4.33
2022-08-28T10:58:34.806Z,3.33
2022-08-28T11:01:07.470Z,3.08
2022-08-28T11:03:43.077Z,4.50
2022-08-28T11:06:39.759Z,2.83
2022-08-28T11:09:27.337Z,3.45
2022-08-28T11:12:07.204Z,4.30
2022-08-28T11:14:48.429Z,2.92
2022-08-28T11:17:22.416Z,3.42
2022-08-28T11:20:25.233Z,4.13
2022-08-28T11:23:20.419Z,3.67
2022-08-28T11:25:57.668Z,4.10
2022-08-28T11:28:35.269Z,6.93
2022-08-28T11:31:05.810Z,8.27
2022-08-28T11:37:47.067Z,8.18
2022-08-28T11:40:30.627Z,9.93
2022-08-28T11:43:30.691Z,8.27
2022-08-28T11:46:01.060Z,9.18
2022-08-28T11:48:37.553Z,9.27
2022-08-28T11:51:31.788Z,7.18
2022-08-28T11:54:08.701Z,6.10
2022-08-28T11:57:08.299Z,7.00
2022-08-28T12:00:11.527Z,6.40
2022-08-28T12:02:39.385Z,6.18
2022-08-28T12:05:12.460Z,5.97
2022-08-28T12:07:45.380Z,6.03
2022-08-28T12:10:24.915Z,7.40
2022-08-28T12:13:02.522Z,8.07
2022-08-28T12:15:33.575Z,9.45
2022-08-28T12:18:05.120Z,8.60
2022-08-28T12:20:54.889Z,10.50
2022-08-28T12:23:30.098Z,8.60
2022-08-28T12:26:39.258Z,10.70
2022-08-28T12:29:34.951Z,9.98
2022-08-28T12:32:26.213Z,11.23
2022-08-28T12:35:44.771Z,9.68
2022-08-28T12:38:21.225Z,13.23
2022-08-28T12:41:18.777Z,9.75
2022-08-28T12:43:55.619Z,9.43
2022-08-28T12:46:43.359Z,12.50
2022-08-28T12:49:32.950Z,11.40
2022-08-28T12:53:06.001Z,7.90
2022-08-28T12:55:34.466Z,7.45
2022-08-28T12:59:17.920Z,6.53
2022-08-28T13:01:45.295Z,5.40
2022-08-28T13:04:40.006Z,6.45
2022-08-28T13:07:16.114Z,5.05
2022-08-28T13:10:06.254Z,6.75
2022-08-28T13:12:55.203Z,2.97
2022-08-28T13:16:07.515Z,2.28
2022-08-28T13:19:30.870Z,3.92
2022-08-28T13:25:08.114Z,2.53
2022-08-28T13:27:42.521Z,2.42
2022-08-28T13:30:20.269Z,2.60
2022-08-28T13:33:04.995Z,3.83
2022-08-28T13:35:42.921Z,2.60
2022-08-28T15:14:41.514Z,6.22
2022-08-28T15:17:24.052Z,8.15
2022-08-28T15:20:05.115Z,8.68
2022-08-28T15:22:35.406Z,8.05
2022-08-28T15:25:29.179Z,8.60
2022-08-28T15:27:57.599Z,8.77
2022-08-28T15:30:25.593Z,8.05
2022-08-28T15:33:06.666Z,8.25
2022-08-28T15:35:37.963Z,10.38
2022-08-28T15:38:13.593Z,8.32
2022-08-28T15:41:00.828Z,12.50
2022-08-28T15:43:28.309Z,7.57
2022-08-28T15:45:55.700Z,7.75
2022-08-28T15:48:24.992Z,7.85
2022-08-28T15:50:52.657Z,7.10
2022-08-28T15:53:19.870Z,8.98
2022-08-28T15:55:47.445Z,9.48
2022-08-28T15:58:15.010Z,11.27
2022-08-28T16:00:42.974Z,10.05
2022-08-28T16:03:10.177Z,10.40
2022-08-28T16:05:40.682Z,11.25
2022-08-28T16:08:10.639Z,10.50
2022-08-28T16:10:38.040Z,11.63
2022-08-28T16:13:06.882Z,13.43
2022-08-28T16:15:34.954Z,8.60
2022-08-28T16:21:38.151Z,10.25
2022-08-28T16:28:32.845Z,11.65
2022-08-28T16:31:07.571Z,11.77
2022-08-28T16:33:48.055Z,10.20
2022-08-28T16:36:15.477Z,12.98
2022-08-28T16:38:45.807Z,9.82
2022-08-28T16:41:19.662Z,10.48
2022-08-28T16:43:54.480Z,12.45
2022-08-28T16:46:25.026Z,10.10
2022-08-28T16:48:59.613Z,9.43
2022-08-28T16:51:27.636Z,9.73
2022-08-28T16:54:04.480Z,10.15
2022-08-28T16:56:33.684Z,9.80
2022-08-28T16:59:01.922Z,7.93
2022-08-28T17:01:30.722Z,12.18
2022-08-28T17:03:59.292Z,10.50
2022-08-28T17:06:31.703Z,7.90
2022-08-28T17:08:59.645Z,9.65
2022-08-28T17:12:20.274Z,8.68
2022-08-28T17:14:48.493Z,11.27
2022-08-28T17:17:16.530Z,12.60
2022-08-28T17:19:50.857Z,13.40
2022-08-28T17:22:36.684Z,12.98
2022-08-28T17:25:22.218Z,14.52
2022-08-28T17:27:50.535Z,15.13
2022-08-28T17:30:22.493Z,18.75
2022-08-28T17:32:50.996Z,18.15
2022-08-28T17:35:18.722Z,24.25
2022-08-28T17:37:46.769Z,20.55
2022-08-28T17:40:17.600Z,25.63
2022-08-28T17:42:48.294Z,18.60
2022-08-28T17:45:18.558Z,21.80
2022-08-28T17:47:46.494Z,19.95
2022-08-28T17:50:13.751Z,24.92
2022-08-28T17:52:56.078Z,19.63
2022-08-28T17:55:23.553Z,20.25
2022-08-28T17:57:51.964Z,16.60
2022-08-28T18:00:47.144Z,24.42
2022-08-28T18:03:15.939Z,21.98
2022-08-28T18:05:44.518Z,20.58
2022-08-28T18:08:30.973Z,23.52
2022-08-28T18:11:01.091Z,19.13
2022-08-28T19:39:21.066Z,18.25
2022-08-28T19:53:19.189Z,21.13
2022-08-28T19:57:07.039Z,15.23
2022-08-28T19:59:58.680Z,22.90
2022-08-28T20:02:43.590Z,18.88
2022-08-28T20:05:31.744Z,18.77
2022-08-28T20:08:35.741Z,17.33
2022-08-28T20:12:05.133Z,16.10
2022-08-28T20:18:03.587Z,16.77
2022-08-28T20:30:36.733Z,16.48
2022-08-28T20:33:24.041Z,14.25
2022-08-28T20:46:48.974Z,11.75
2022-08-28T20:49:27.205Z,25.13
2022-08-28T20:52:19.714Z,15.90
2022-08-28T20:55:27.281Z,14.98
2022-08-28T20:58:13.905Z,14.98
2022-08-28T21:00:59.445Z,13.05
2022-08-28T21:23:06.311Z,13.30
2022-08-28T21:26:38.382Z,14.65
2022-08-28T21:32:10.575Z,13.25
2022-08-28T21:38:44.249Z,12.13
2022-08-28T21:44:32.949Z,13.02
2022-08-28T21:47:18.218Z,17.70
2022-08-28T21:56:03.375Z,15.98
2022-08-28T21:59:01.781Z,18.50
2022-08-28T22:01:47.225Z,15.55
2022-08-28T22:07:45.269Z,17.33
2022-08-28T22:10:43.440Z,14.63
2022-08-28T22:14:22.209Z,18.50
2022-08-28T22:16:54.199Z,17.13
2022-08-28T22:26:38.669Z,12.73
2022-08-28T22:48:30.356Z,15.88
2022-08-28T23:04:46.174Z,13.63
2022-08-28T23:07:30.949Z,13.68
2022-08-28T23:21:02.567Z,17.42
2022-08-28T23:32:16.369Z,14.82
2022-08-28T23:42:23.941Z,21.20
